Time;durP1;ratioP1;P1;durP2;ratioP2;P2;SDS_P1;SDS_P2;PMS_P1;PMS_P2;Temp;Humidity;BMP_temperature;BMP_pressure;BME280_temperature;BME280_humidity;BME280_pressure;Samples;Min_cycle;Max_cycle;Signal;HPM_P1;HPM_P2
2022/10/30 00:00:31;;;;;;;8.45;5.60;;;13.50;99.90;;;;;;4991043;28;20041;-81
2022/10/30 00:02:56;;;;;;;12.13;6.13;;;13.50;99.90;;;;;;4956267;28;20069;-81
2022/10/30 00:05:22;;;;;;;7.97;5.22;;;13.50;99.90;;;;;;4990193;28;20076;-81
2022/10/30 00:07:49;;;;;;;9.93;5.80;;;13.40;99.90;;;;;;5009545;28;20049;-82
2022/10/30 00:10:16;;;;;;;9.27;5.82;;;13.40;99.90;;;;;;5005945;28;20034;-81
2022/10/30 00:12:43;;;;;;;10.20;5.90;;;13.30;99.90;;;;;;5004127;28;20046;-81
2022/10/30 00:15:09;;;;;;;9.65;5.97;;;13.30;99.90;;;;;;5004665;28;20427;-81
2022/10/30 00:17:35;;;;;;;12.55;5.90;;;13.30;99.90;;;;;;5009040;28;20107;-82
2022/10/30 00:20:01;;;;;;;9.60;6.78;;;13.20;99.90;;;;;;4975124;28;20030;-81
2022/10/30 00:22:27;;;;;;;8.13;5.78;;;13.20;99.90;;;;;;5001774;28;20034;-81
2022/10/30 00:24:52;;;;;;;11.90;6.90;;;13.20;99.90;;;;;;5007706;28;20117;-81
2022/10/30 00:27:18;;;;;;;10.48;5.60;;;13.20;99.90;;;;;;5002304;28;20097;-81
2022/10/30 00:29:44;;;;;;;10.88;6.38;;;13.20;99.90;;;;;;4989675;28;20037;-81
2022/10/30 00:32:10;;;;;;;11.05;6.07;;;13.20;99.90;;;;;;5005015;28;20033;-80
2022/10/30 00:34:36;;;;;;;12.60;6.25;;;13.20;99.90;;;;;;4987917;28;20483;-81
2022/10/30 00:37:02;;;;;;;11.32;6.10;;;13.20;99.90;;;;;;4988445;28;20163;-80
2022/10/30 00:39:28;;;;;;;11.10;5.88;;;13.20;99.90;;;;;;4974656;28;20724;-80
2022/10/30 00:41:53;;;;;;;12.45;6.22;;;13.20;99.90;;;;;;4975609;28;20399;-80
2022/10/30 00:44:44;;;;;;;11.77;6.80;;;13.20;99.90;;;;;;4988159;28;20092;-81
2022/10/30 00:47:29;;;;;;;16.15;6.00;;;13.20;99.90;;;;;;5021832;28;20104;-80
2022/10/30 00:50:10;;;;;;;9.32;6.03;;;13.20;99.90;;;;;;5011602;28;20088;-81
2022/10/30 00:52:42;;;;;;;11.43;5.97;;;13.10;99.90;;;;;;5027115;28;20100;-80
2022/10/30 00:55:14;;;;;;;12.43;5.88;;;13.10;99.90;;;;;;4993389;28;20034;-81
2022/10/30 00:57:41;;;;;;;9.93;5.70;;;13.10;99.90;;;;;;5011310;28;20104;-80
2022/10/30 01:00:10;;;;;;;12.82;6.28;;;13.10;99.90;;;;;;5004636;28;20130;-81
2022/10/30 01:02:38;;;;;;;11.45;5.85;;;13.00;99.90;;;;;;4965683;28;20049;-81
2022/10/30 01:05:05;;;;;;;12.68;6.03;;;13.00;99.90;;;;;;4971871;28;20488;-81
2022/10/30 01:07:31;;;;;;;11.38;5.63;;;13.00;99.90;;;;;;5021186;28;20034;-80
2022/10/30 01:09:56;;;;;;;11.98;5.65;;;13.00;99.90;;;;;;4974830;28;20041;-80
2022/10/30 01:12:22;;;;;;;11.93;5.90;;;13.00;99.90;;;;;;4992411;28;20034;-81
2022/10/30 01:14:54;;;;;;;10.15;5.40;;;13.00;99.90;;;;;;4990997;28;20038;-82
2022/10/30 01:17:33;;;;;;;12.77;5.90;;;12.90;99.90;;;;;;5008938;28;20034;-80
2022/10/30 01:20:19;;;;;;;14.32;5.72;;;12.90;99.90;;;;;;5026788;28;20022;-81
2022/10/30 01:22:45;;;;;;;9.40;5.25;;;12.80;99.90;;;;;;4979454;28;20093;-82
2022/10/30 01:25:53;;;;;;;8.77;5.70;;;12.80;99.90;;;;;;4990094;28;20107;-81
2022/10/30 01:28:19;;;;;;;8.27;5.32;;;12.70;99.90;;;;;;4915947;29;20401;-81
2022/10/30 01:31:16;;;;;;;10.88;6.35;;;12.70;99.90;;;;;;4985843;28;20026;-82
2022/10/30 01:34:14;;;;;;;12.02;5.97;;;12.80;99.90;;;;;;5007063;28;20056;-81
2022/10/30 01:36:45;;;;;;;7.57;5.03;;;12.70;99.90;;;;;;5003409;28;20038;-81
2022/10/30 01:39:21;;;;;;;10.15;5.55;;;12.80;99.90;;;;;;4992423;28;20030;-81
2022/10/30 01:41:47;;;;;;;7.97;5.47;;;12.70;99.90;;;;;;4996919;28;20030;-81
2022/10/30 01:44:20;;;;;;;9.00;5.47;;;12.70;99.90;;;;;;4974390;28;20531;-81
2022/10/30 01:46:49;;;;;;;9.05;5.45;;;12.70;99.90;;;;;;4974093;28;20058;-80
2022/10/30 01:49:42;;;;;;;11.70;5.57;;;12.70;99.90;;;;;;4990146;28;20040;-80
2022/10/30 01:52:40;;;;;;;11.80;5.50;;;12.70;99.90;;;;;;5018781;28;20034;-81
2022/10/30 01:55:12;;;;;;;10.90;5.40;;;12.80;99.90;;;;;;5024339;28;20069;-81
2022/10/30 01:58:01;;;;;;;10.75;5.65;;;12.80;99.90;;;;;;5004955;28;20121;-81
2022/10/30 02:00:27;;;;;;;13.40;6.53;;;12.80;99.90;;;;;;5005562;28;20042;-80
2022/10/30 02:02:53;;;;;;;8.57;4.97;;;12.90;99.90;;;;;;4982671;28;20161;-81
2022/10/30 02:05:47;;;;;;;11.48;5.70;;;12.90;99.90;;;;;;4989547;28;20050;-80
2022/10/30 02:08:13;;;;;;;9.07;5.88;;;12.90;99.90;;;;;;4988457;28;20133;-80
2022/10/30 02:10:42;;;;;;;10.07;5.90;;;12.90;99.90;;;;;;5009155;28;20597;-80
2022/10/30 02:13:09;;;;;;;9.40;5.72;;;12.90;99.90;;;;;;4980975;28;20457;-81
2022/10/30 02:15:36;;;;;;;9.82;5.50;;;13.00;99.90;;;;;;4989914;28;20034;-80
2022/10/30 02:18:02;;;;;;;10.80;5.25;;;13.00;99.90;;;;;;4971955;28;20027;-80
2022/10/30 02:20:29;;;;;;;10.43;5.03;;;13.00;99.90;;;;;;4967067;28;20132;-80
2022/10/30 02:22:55;;;;;;;14.48;5.72;;;13.00;99.90;;;;;;5001322;28;20038;-80
2022/10/30 02:25:21;;;;;;;11.38;5.00;;;13.00;99.90;;;;;;4990930;28;20172;-80
2022/10/30 02:27:46;;;;;;;12.52;5.55;;;13.00;99.90;;;;;;4989644;28;20100;-80
2022/10/30 02:30:13;;;;;;;12.30;5.50;;;13.10;99.90;;;;;;4973619;28;20129;-80
2022/10/30 02:32:39;;;;;;;8.80;5.43;;;13.10;99.90;;;;;;5002818;28;20030;-80
2022/10/30 02:35:06;;;;;;;14.63;6.05;;;13.10;99.90;;;;;;4991297;28;20560;-80
2022/10/30 02:37:31;;;;;;;11.73;5.53;;;13.10;99.90;;;;;;4999369;28;20415;-81
2022/10/30 02:39:58;;;;;;;7.90;4.90;;;13.10;99.90;;;;;;4973352;28;20038;-81
2022/10/30 02:42:24;;;;;;;12.55;5.68;;;13.10;99.90;;;;;;4994560;28;20034;-80
2022/10/30 02:44:52;;;;;;;11.38;5.97;;;13.10;99.90;;;;;;4973145;28;20468;-80
2022/10/30 02:47:18;;;;;;;12.57;5.28;;;13.10;99.90;;;;;;4986099;28;20045;-81
2022/10/30 02:49:43;;;;;;;7.82;5.20;;;13.10;99.90;;;;;;4973222;28;20451;-81
2022/10/30 02:52:09;;;;;;;11.35;5.55;;;13.20;99.90;;;;;;5000154;28;20084;-81
2022/10/30 02:54:35;;;;;;;10.90;5.47;;;13.20;99.90;;;;;;4973002;28;20065;-81
2022/10/30 02:57:01;;;;;;;18.10;5.53;;;13.30;99.90;;;;;;5020415;28;20039;-80
2022/10/30 02:59:27;;;;;;;8.48;5.80;;;13.20;99.90;;;;;;4960448;28;20072;-80
2022/10/30 03:01:52;;;;;;;13.35;6.07;;;13.30;99.90;;;;;;5010268;28;20057;-81
2022/10/30 03:04:18;;;;;;;11.95;5.32;;;13.30;99.90;;;;;;4956571;28;20037;-80
2022/10/30 03:06:44;;;;;;;21.58;5.90;;;13.20;99.90;;;;;;4992274;28;20406;-80
2022/10/30 03:09:10;;;;;;;11.38;5.43;;;13.30;99.90;;;;;;4989252;28;20153;-81
2022/10/30 03:11:36;;;;;;;9.85;5.82;;;13.20;99.90;;;;;;4983627;28;20073;-81
2022/10/30 03:14:02;;;;;;;12.93;5.35;;;13.20;99.90;;;;;;4988592;28;20027;-82
2022/10/30 03:16:32;;;;;;;11.93;4.97;;;13.20;99.90;;;;;;4999039;28;20186;-81
2022/10/30 03:18:58;;;;;;;9.35;5.60;;;13.20;99.90;;;;;;4962228;28;20047;-82
2022/10/30 03:21:26;;;;;;;14.30;5.80;;;13.20;99.90;;;;;;4998633;28;20734;-82
2022/10/30 03:23:53;;;;;;;13.35;5.80;;;13.10;99.90;;;;;;5004436;28;20037;-81
2022/10/30 03:26:20;;;;;;;10.18;5.70;;;13.10;99.90;;;;;;4997512;28;20034;-82
2022/10/30 03:29:15;;;;;;;8.40;5.00;;;13.10;99.90;;;;;;4985836;28;20030;-82
2022/10/30 03:31:42;;;;;;;12.80;5.78;;;13.20;99.90;;;;;;4972071;28;20069;-82
2022/10/30 03:34:15;;;;;;;11.80;6.10;;;13.20;99.90;;;;;;5008333;28;20030;-82
2022/10/30 03:36:41;;;;;;;9.35;5.28;;;13.20;99.90;;;;;;4975036;28;20514;-82
2022/10/30 03:39:07;;;;;;;11.68;5.22;;;13.30;99.90;;;;;;4972131;28;20038;-81
2022/10/30 03:41:34;;;;;;;10.25;4.93;;;13.30;99.90;;;;;;4971943;28;20034;-81
2022/10/30 03:44:01;;;;;;;10.98;5.47;;;13.30;99.90;;;;;;4987529;28;20080;-81
2022/10/30 03:46:26;;;;;;;10.20;5.38;;;13.30;99.90;;;;;;4975580;28;20455;-82
2022/10/30 03:48:58;;;;;;;10.02;5.25;;;13.30;99.90;;;;;;4972432;28;20125;-82
2022/10/30 03:51:24;;;;;;;13.95;6.00;;;13.30;99.90;;;;;;4990192;28;20030;-81
2022/10/30 03:53:50;;;;;;;10.35;5.45;;;13.30;99.90;;;;;;4956991;28;20484;-81
2022/10/30 03:56:16;;;;;;;10.35;5.13;;;13.30;99.90;;;;;;4974516;28;20034;-81
2022/10/30 03:58:46;;;;;;;8.50;5.47;;;13.30;99.90;;;;;;4988164;28;20545;-83
2022/10/30 04:01:16;;;;;;;10.38;5.28;;;13.20;99.90;;;;;;4994762;28;20072;-81
2022/10/30 04:03:46;;;;;;;7.22;4.97;;;13.30;99.90;;;;;;5012004;28;20039;-81
2022/10/30 04:06:12;;;;;;;11.57;5.25;;;13.20;99.90;;;;;;4996230;28;20026;-83
2022/10/30 04:08:38;;;;;;;9.50;5.28;;;13.20;99.90;;;;;;5007750;28;20026;-82
2022/10/30 04:11:04;;;;;;;11.18;5.47;;;13.20;99.90;;;;;;4999255;28;20688;-82
2022/10/30 04:13:30;;;;;;;6.00;4.60;;;13.20;99.90;;;;;;4970818;28;20041;-82
2022/10/30 04:15:55;;;;;;;13.70;5.50;;;13.20;99.90;;;;;;4974761;28;20029;-81
2022/10/30 04:18:22;;;;;;;9.80;4.93;;;13.20;99.90;;;;;;4987415;28;20039;-82
2022/10/30 04:20:48;;;;;;;9.50;4.70;;;13.20;99.90;;;;;;4956911;28;20113;-81
2022/10/30 04:23:17;;;;;;;8.45;5.10;;;13.20;99.90;;;;;;5003433;28;20038;-81
2022/10/30 04:25:43;;;;;;;7.38;5.13;;;13.20;99.90;;;;;;5003839;28;20022;-81
2022/10/30 04:28:10;;;;;;;8.40;5.75;;;13.10;99.90;;;;;;4988906;28;20038;-82
2022/10/30 04:30:37;;;;;;;12.65;6.30;;;13.10;99.90;;;;;;5003943;28;20787;-82
2022/10/30 04:33:05;;;;;;;11.25;5.32;;;13.10;99.90;;;;;;5003695;28;20076;-82
2022/10/30 04:35:36;;;;;;;8.75;4.78;;;13.10;99.90;;;;;;4990479;28;20124;-81
2022/10/30 04:38:05;;;;;;;10.38;5.38;;;13.10;99.90;;;;;;4975156;28;20059;-82
2022/10/30 04:40:36;;;;;;;10.55;5.75;;;13.10;99.90;;;;;;5006394;28;20037;-81
2022/10/30 04:43:05;;;;;;;13.93;6.32;;;13.10;99.90;;;;;;4971076;28;20034;-81
2022/10/30 04:45:32;;;;;;;10.48;5.93;;;13.10;99.90;;;;;;4971925;28;20030;-81
2022/10/30 04:48:06;;;;;;;10.65;5.65;;;13.10;99.90;;;;;;4987201;28;20037;-82
2022/10/30 04:50:33;;;;;;;10.95;5.07;;;13.10;99.90;;;;;;4974292;28;20026;-81
2022/10/30 04:53:01;;;;;;;16.80;5.80;;;13.10;99.90;;;;;;4993199;28;20027;-83
2022/10/30 04:55:27;;;;;;;7.75;4.95;;;13.00;99.90;;;;;;4987465;28;20081;-82
2022/10/30 04:57:58;;;;;;;9.07;5.70;;;13.00;99.90;;;;;;4987522;28;20054;-81
2022/10/30 05:00:25;;;;;;;11.23;5.65;;;13.00;99.90;;;;;;5005124;28;20533;-82
2022/10/30 05:02:53;;;;;;;10.15;5.38;;;13.00;99.90;;;;;;4969835;28;20031;-81
2022/10/30 05:05:20;;;;;;;14.05;5.78;;;13.00;99.90;;;;;;4988783;28;20117;-81
2022/10/30 05:07:47;;;;;;;10.32;5.50;;;13.00;99.90;;;;;;4970756;28;20030;-81
2022/10/30 05:10:13;;;;;;;12.85;5.05;;;13.00;99.90;;;;;;4988480;28;20502;-81
2022/10/30 05:12:43;;;;;;;11.68;5.60;;;13.00;99.90;;;;;;4974212;28;20034;-81
2022/10/30 05:15:11;;;;;;;13.15;5.50;;;13.00;99.90;;;;;;4959766;28;20035;-82
2022/10/30 05:17:37;;;;;;;9.07;5.18;;;12.90;99.90;;;;;;4995958;28;20030;-82
2022/10/30 05:20:05;;;;;;;6.75;4.38;;;12.90;99.90;;;;;;4970672;28;20129;-82
2022/10/30 05:22:31;;;;;;;12.25;5.20;;;12.80;99.90;;;;;;5002898;28;20030;-82
2022/10/30 05:24:57;;;;;;;9.65;5.93;;;12.80;99.90;;;;;;4972615;28;20031;-82
2022/10/30 05:27:23;;;;;;;7.45;4.60;;;12.80;99.90;;;;;;4976254;28;20411;-81
2022/10/30 05:29:49;;;;;;;10.20;5.15;;;12.80;99.90;;;;;;4987378;28;20031;-81
2022/10/30 05:32:15;;;;;;;8.55;5.07;;;12.70;99.90;;;;;;4962284;28;20045;-82
2022/10/30 05:34:44;;;;;;;8.63;5.13;;;12.70;99.90;;;;;;4975075;28;20035;-82
2022/10/30 05:37:11;;;;;;;10.80;5.18;;;12.70;99.90;;;;;;5003884;28;20035;-82
2022/10/30 05:39:37;;;;;;;6.70;4.90;;;12.60;99.90;;;;;;4987592;28;20043;-82
2022/10/30 05:42:09;;;;;;;7.55;5.15;;;12.60;99.90;;;;;;4987829;28;20037;-82
2022/10/30 05:44:41;;;;;;;9.68;5.32;;;12.60;99.90;;;;;;4970973;28;20031;-82
2022/10/30 05:47:07;;;;;;;13.52;6.07;;;12.50;99.90;;;;;;4963607;28;20054;-81
2022/10/30 05:49:34;;;;;;;11.68;5.90;;;12.50;99.90;;;;;;4974758;28;20031;-82
2022/10/30 05:52:03;;;;;;;9.68;5.30;;;12.50;99.90;;;;;;4987367;28;20038;-82
2022/10/30 05:54:29;;;;;;;13.07;5.70;;;12.50;99.90;;;;;;4974050;28;20053;-82
2022/10/30 05:57:05;;;;;;;10.60;5.45;;;12.50;99.90;;;;;;4971625;28;20042;-82
2022/10/30 05:59:34;;;;;;;11.18;6.00;;;12.50;99.90;;;;;;4974776;28;20041;-82
2022/10/30 06:02:01;;;;;;;13.20;6.13;;;12.50;99.90;;;;;;4993330;28;20109;-82
2022/10/30 06:04:27;;;;;;;9.45;6.18;;;12.50;99.90;;;;;;4970721;28;20069;-82
2022/10/30 06:06:53;;;;;;;9.80;6.13;;;12.50;99.90;;;;;;4968942;28;20045;-82
2022/10/30 06:09:19;;;;;;;12.25;5.82;;;12.50;99.90;;;;;;4990327;28;20087;-81
2022/10/30 06:12:01;;;;;;;12.48;4.95;;;12.50;99.90;;;;;;5004369;28;20036;-81
2022/10/30 06:14:56;;;;;;;9.48;4.78;;;12.50;99.90;;;;;;4992187;28;20047;-82
2022/10/30 06:17:22;;;;;;;12.07;5.78;;;12.50;99.90;;;;;;5003698;28;20041;-83
2022/10/30 06:20:09;;;;;;;8.20;4.78;;;12.50;99.90;;;;;;4980126;28;20641;-82
2022/10/30 06:23:06;;;;;;;11.90;5.70;;;12.50;99.90;;;;;;4973318;28;20046;-82
2022/10/30 06:25:43;;;;;;;12.32;5.65;;;12.50;99.90;;;;;;4979558;28;20030;-82
2022/10/30 06:28:19;;;;;;;17.05;7.97;;;12.50;99.90;;;;;;4964037;28;20045;-82
2022/10/30 06:30:45;;;;;;;14.55;7.13;;;12.60;99.90;;;;;;4978059;28;20120;-82
2022/10/30 06:33:10;;;;;;;11.45;6.70;;;12.60;99.90;;;;;;4966154;28;20484;-82
2022/10/30 06:35:40;;;;;;;12.00;5.88;;;12.60;99.90;;;;;;4989865;28;20117;-81
2022/10/30 06:38:07;;;;;;;18.17;5.63;;;12.60;99.90;;;;;;4973468;28;20125;-82
2022/10/30 06:40:34;;;;;;;16.20;5.15;;;12.60;99.90;;;;;;4973390;28;20023;-82
2022/10/30 06:43:29;;;;;;;7.75;4.80;;;12.60;99.90;;;;;;4977370;28;20042;-82
2022/10/30 06:45:58;;;;;;;10.02;4.60;;;12.60;99.90;;;;;;4977162;28;20030;-81
2022/10/30 06:48:23;;;;;;;8.40;5.13;;;12.60;99.90;;;;;;4970011;28;20142;-82
2022/10/30 06:50:54;;;;;;;8.63;5.00;;;12.60;99.90;;;;;;4983706;28;20037;-82
2022/10/30 06:53:20;;;;;;;9.05;5.63;;;12.60;99.90;;;;;;4989091;28;20457;-82
2022/10/30 06:55:57;;;;;;;9.40;5.05;;;12.60;99.90;;;;;;4961925;28;20084;-82
2022/10/30 06:58:55;;;;;;;12.38;5.40;;;12.60;99.90;;;;;;4982377;28;20034;-82
2022/10/30 07:01:33;;;;;;;11.98;5.78;;;12.60;99.90;;;;;;4985728;28;20080;-82
2022/10/30 07:04:10;;;;;;;11.00;5.40;;;12.60;99.90;;;;;;5023300;28;20029;-81
2022/10/30 07:06:36;;;;;;;13.15;5.60;;;12.60;99.90;;;;;;4950725;28;20045;-82
2022/10/30 07:09:03;;;;;;;9.45;5.43;;;12.50;99.90;;;;;;4986801;28;20031;-82
2022/10/30 07:11:28;;;;;;;9.27;4.88;;;12.60;99.90;;;;;;4978169;28;20038;-82
2022/10/30 07:14:13;;;;;;;13.10;5.60;;;12.60;99.90;;;;;;4975012;28;20105;-82
2022/10/30 07:16:47;;;;;;;8.57;5.30;;;12.60;99.90;;;;;;4997766;28;20662;-82
2022/10/30 07:19:12;;;;;;;8.48;5.00;;;12.60;99.90;;;;;;4988697;28;20472;-82
2022/10/30 07:21:39;;;;;;;9.95;5.80;;;12.70;99.90;;;;;;4984135;28;20040;-81
2022/10/30 07:24:05;;;;;;;6.35;5.05;;;12.70;99.90;;;;;;4983103;28;20357;-82
2022/10/30 07:26:36;;;;;;;9.07;5.00;;;12.80;99.90;;;;;;4987076;28;20026;-82
2022/10/30 07:29:18;;;;;;;12.88;5.97;;;12.80;99.90;;;;;;4951432;28;20037;-82
2022/10/30 07:32:02;;;;;;;11.65;4.93;;;12.90;99.90;;;;;;4941448;28;20031;-82
2022/10/30 07:34:42;;;;;;;10.48;5.43;;;12.90;99.90;;;;;;4971827;28;20121;-81
2022/10/30 07:37:20;;;;;;;12.80;5.35;;;12.90;99.90;;;;;;4970707;28;20047;-82
2022/10/30 07:39:55;;;;;;;9.10;5.95;;;13.00;99.90;;;;;;4972909;28;20040;-82
2022/10/30 07:42:41;;;;;;;;;;;13.10;99.90;;;;;;4977510;28;20740;-82
2022/10/30 07:45:28;;;;;;;;;;;13.30;99.90;;;;;;4970311;28;20036;-82
2022/10/30 07:48:26;;;;;;;13.45;5.53;;;13.30;99.90;;;;;;4964352;28;20409;-83
2022/10/30 07:50:58;;;;;;;11.27;4.72;;;13.30;99.90;;;;;;4959602;28;20026;-82
2022/10/30 07:53:25;;;;;;;15.32;5.82;;;13.40;99.90;;;;;;4982124;28;20062;-82
2022/10/30 07:55:51;;;;;;;10.60;4.88;;;13.40;99.90;;;;;;4980294;28;20022;-82
2022/10/30 07:58:56;;;;;;;10.13;5.05;;;13.50;99.90;;;;;;4956358;28;20038;-82
2022/10/30 08:01:39;;;;;;;13.75;5.68;;;13.50;99.90;;;;;;4936573;28;20196;-81
2022/10/30 08:04:31;;;;;;;11.50;5.15;;;13.60;99.90;;;;;;4983080;28;20030;-82
2022/10/30 08:07:05;;;;;;;8.52;5.07;;;13.70;99.90;;;;;;4967295;28;20099;-83
2022/10/30 08:09:31;;;;;;;10.95;4.75;;;13.70;99.90;;;;;;4970133;28;20107;-82
2022/10/30 08:11:56;;;;;;;8.98;5.15;;;13.80;99.90;;;;;;4987555;28;20045;-82
2022/10/30 08:14:22;;;;;;;13.50;5.35;;;13.80;99.90;;;;;;4982826;28;20022;-82
2022/10/30 08:16:50;;;;;;;9.60;5.60;;;13.90;99.90;;;;;;4965787;28;20034;-81
2022/10/30 08:19:16;;;;;;;11.95;5.88;;;14.00;99.90;;;;;;4971933;28;20034;-83
2022/10/30 08:21:42;;;;;;;11.70;6.03;;;14.10;99.90;;;;;;4989426;28;20053;-83
2022/10/30 08:24:16;;;;;;;10.73;5.00;;;14.20;99.90;;;;;;4956607;28;20417;-81
2022/10/30 08:26:45;;;;;;;9.55;5.32;;;14.30;99.90;;;;;;4995184;28;20030;-82
2022/10/30 08:29:11;;;;;;;13.35;5.10;;;14.50;99.90;;;;;;4953083;28;20038;-82
2022/10/30 08:31:37;;;;;;;11.05;5.60;;;14.60;99.90;;;;;;4980519;28;20034;-82
2022/10/30 08:34:35;;;;;;;11.07;5.47;;;14.60;99.90;;;;;;4979472;28;20539;-80
2022/10/30 08:37:06;;;;;;;8.98;4.85;;;14.70;99.90;;;;;;4991029;28;20624;-81
2022/10/30 08:39:33;;;;;;;12.10;5.00;;;14.70;99.90;;;;;;4972825;28;20027;-80
2022/10/30 08:42:19;;;;;;;;;;;14.80;99.90;;;;;;4976417;28;20043;-80
2022/10/30 08:44:46;;;;;;;6.03;4.47;;;14.90;99.90;;;;;;4988337;28;19920;-79
2022/10/30 08:47:18;;;;;;;10.27;4.90;;;14.90;99.90;;;;;;5021529;28;20038;-80
2022/10/30 08:49:45;;;;;;;8.70;5.05;;;15.00;99.90;;;;;;4984731;28;20039;-82
2022/10/30 08:52:12;;;;;;;8.02;5.20;;;15.00;99.90;;;;;;4985097;28;20035;-80
2022/10/30 08:54:38;;;;;;;13.30;5.47;;;15.10;99.90;;;;;;4968569;28;20578;-80
2022/10/30 08:57:04;;;;;;;11.23;4.78;;;15.10;99.90;;;;;;4955517;28;20125;-80
2022/10/30 08:59:31;;;;;;;11.43;4.35;;;15.20;99.90;;;;;;5004515;28;20037;-80
2022/10/30 09:01:58;;;;;;;8.80;5.10;;;15.30;99.90;;;;;;4990927;28;20505;-82
2022/10/30 09:04:44;;;;;;;10.38;4.53;;;15.40;99.90;;;;;;4969615;28;20038;-79
2022/10/30 09:07:34;;;;;;;12.15;4.82;;;15.40;99.90;;;;;;4989033;28;20606;-79
2022/10/30 09:10:18;;;;;;;13.82;5.30;;;15.40;99.90;;;;;;4985850;28;20129;-81
2022/10/30 09:12:44;;;;;;;10.75;5.18;;;15.60;99.90;;;;;;4961038;28;20034;-79
2022/10/30 09:15:11;;;;;;;15.35;4.47;;;15.60;99.90;;;;;;4970497;28;20475;-78
2022/10/30 09:17:57;;;;;;;10.38;4.47;;;15.70;99.90;;;;;;5024975;28;20057;-80
2022/10/30 09:20:23;;;;;;;11.33;4.67;;;15.80;99.90;;;;;;5021690;28;20044;-80
2022/10/30 09:22:49;;;;;;;10.70;4.53;;;15.90;99.90;;;;;;5027448;28;20096;-79
2022/10/30 09:25:16;;;;;;;10.52;4.78;;;16.00;99.90;;;;;;4980099;28;20035;-80
2022/10/30 09:28:02;;;;;;;8.40;4.38;;;16.00;99.90;;;;;;4994326;28;20443;-81
2022/10/30 09:30:40;;;;;;;13.43;4.47;;;16.00;99.90;;;;;;5007648;28;20053;-81
2022/10/30 09:33:08;;;;;;;8.18;3.85;;;16.10;99.90;;;;;;4958374;28;20395;-82
2022/10/30 09:35:56;;;;;;;9.75;4.82;;;16.20;99.90;;;;;;4989968;28;20032;-80
2022/10/30 09:38:22;;;;;;;13.32;4.97;;;16.30;99.90;;;;;;4974304;28;20511;-79
2022/10/30 09:41:05;;;;;;;8.00;4.22;;;16.40;99.90;;;;;;5008211;28;20026;-81
2022/10/30 09:43:53;;;;;;;9.23;4.18;;;16.50;99.90;;;;;;4990841;28;20033;-80
2022/10/30 09:46:54;;;;;;;13.32;4.85;;;16.60;99.90;;;;;;4987879;28;20030;-80
2022/10/30 09:49:39;;;;;;;8.82;4.57;;;16.70;99.90;;;;;;4983103;28;20133;-81
2022/10/30 09:52:29;;;;;;;15.23;5.17;;;16.80;99.90;;;;;;4987519;28;20058;-81
2022/10/30 09:55:03;;;;;;;10.38;4.85;;;16.90;99.90;;;;;;4966523;28;20665;-81
2022/10/30 09:57:37;;;;;;;10.88;4.15;;;17.00;99.90;;;;;;4977819;28;20038;-81
2022/10/30 10:00:17;;;;;;;5.40;3.97;;;17.00;99.90;;;;;;4982877;28;20046;-81
2022/10/30 10:03:01;;;;;;;11.45;4.90;;;17.10;99.90;;;;;;4976558;28;20038;-81
2022/10/30 10:05:48;;;;;;;11.48;5.15;;;17.10;99.90;;;;;;4994310;28;20051;-81
2022/10/30 10:08:44;;;;;;;8.77;4.30;;;17.10;99.90;;;;;;4988035;28;20124;-80
2022/10/30 10:11:42;;;;;;;5.72;4.15;;;17.20;99.90;;;;;;4980429;28;20061;-80
2022/10/30 10:14:14;;;;;;;15.57;4.63;;;17.30;99.90;;;;;;4989977;28;20096;-81
2022/10/30 10:16:44;;;;;;;12.18;5.00;;;17.40;99.90;;;;;;5003981;28;20030;-81
2022/10/30 10:19:15;;;;;;;8.18;4.53;;;17.40;99.90;;;;;;4985364;28;20034;-81
2022/10/30 10:21:53;;;;;;;6.47;3.72;;;17.40;99.90;;;;;;5006951;28;20057;-81
2022/10/30 10:24:25;;;;;;;8.07;4.43;;;17.50;99.90;;;;;;4967986;28;20376;-81
2022/10/30 10:27:02;;;;;;;11.95;4.50;;;17.50;99.90;;;;;;4987439;28;20030;-80
2022/10/30 10:29:53;;;;;;;7.03;4.28;;;17.50;99.90;;;;;;4980743;28;20034;-81
2022/10/30 10:32:50;;;;;;;8.90;4.72;;;17.60;99.90;;;;;;4969694;28;20054;-81
2022/10/30 10:35:43;;;;;;;11.20;4.18;;;17.70;99.90;;;;;;5007532;28;20430;-81
2022/10/30 10:38:35;;;;;;;9.35;4.18;;;17.70;99.90;;;;;;4981052;28;20038;-81
2022/10/30 10:41:13;;;;;;;10.55;4.35;;;17.80;99.90;;;;;;4984254;28;20030;-81
2022/10/30 10:43:49;;;;;;;4.88;3.97;;;17.80;99.90;;;;;;4995872;28;20695;-81
2022/10/30 10:46:28;;;;;;;13.32;4.25;;;17.90;99.90;;;;;;4968964;28;20041;-81
2022/10/30 10:49:00;;;;;;;8.13;4.15;;;17.90;99.90;;;;;;4988125;28;20026;-82
2022/10/30 10:51:38;;;;;;;9.50;4.80;;;18.00;99.90;;;;;;5003838;28;20030;-81
2022/10/30 10:54:22;;;;;;;12.68;4.25;;;18.00;99.90;;;;;;4975165;28;20031;-82
2022/10/30 10:56:50;;;;;;;9.68;4.25;;;18.00;99.90;;;;;;5002242;28;20415;-80
2022/10/30 10:59:23;;;;;;;9.45;4.28;;;18.10;99.90;;;;;;4987876;28;20030;-82
2022/10/30 11:01:57;;;;;;;10.05;4.72;;;18.10;99.90;;;;;;4969395;28;20100;-82
2022/10/30 11:04:39;;;;;;;8.77;4.43;;;18.20;99.90;;;;;;4991617;28;20569;-81
2022/10/30 11:07:38;;;;;;;10.80;4.05;;;18.20;99.90;;;;;;4990509;28;20029;-81
2022/10/30 11:10:13;;;;;;;11.25;4.25;;;18.30;99.90;;;;;;4987042;28;20105;-82
2022/10/30 11:12:39;;;;;;;9.87;4.13;;;18.40;99.90;;;;;;4989894;28;20037;-81
2022/10/30 11:15:17;;;;;;;9.77;3.95;;;18.50;99.90;;;;;;4989853;28;20053;-80
2022/10/30 11:18:05;;;;;;;9.50;4.35;;;18.50;99.90;;;;;;4983831;28;20109;-81
2022/10/30 11:20:58;;;;;;;9.13;3.95;;;18.50;99.90;;;;;;4981914;28;20646;-81
2022/10/30 11:23:39;;;;;;;9.02;3.90;;;18.60;99.90;;;;;;4984783;28;20050;-80
2022/10/30 11:26:30;;;;;;;14.93;6.03;;;18.70;99.90;;;;;;5002672;28;20023;-80
2022/10/30 11:29:00;;;;;;;7.60;4.22;;;18.70;99.90;;;;;;4991160;28;20030;-81
2022/10/30 11:31:36;;;;;;;8.65;4.85;;;18.70;99.90;;;;;;5006841;28;20125;-82
2022/10/30 11:34:35;;;;;;;8.73;3.95;;;18.70;99.90;;;;;;5006007;28;20046;-81
2022/10/30 11:37:02;;;;;;;7.85;4.40;;;18.70;99.90;;;;;;4992055;28;20538;-81
2022/10/30 11:39:33;;;;;;;10.43;4.10;;;18.80;99.90;;;;;;4981902;28;20041;-80
2022/10/30 11:42:05;;;;;;;7.38;4.45;;;18.80;99.90;;;;;;4995864;28;20039;-79
2022/10/30 11:44:45;;;;;;;8.60;4.35;;;18.90;99.90;;;;;;5009086;28;20049;-80
2022/10/30 11:47:14;;;;;;;9.35;4.22;;;18.90;99.90;;;;;;4992528;28;20041;-79
2022/10/30 11:49:52;;;;;;;11.75;4.47;;;19.00;99.90;;;;;;4998480;28;20042;-80
2022/10/30 11:52:21;;;;;;;8.85;4.28;;;18.90;99.90;;;;;;4982222;28;20034;-80
2022/10/30 11:54:57;;;;;;;13.32;4.25;;;18.90;99.90;;;;;;4977311;28;20670;-80
2022/10/30 11:57:45;;;;;;;8.82;4.18;;;18.80;99.90;;;;;;5006074;28;20097;-79
2022/10/30 12:00:19;;;;;;;8.88;3.95;;;18.90;99.90;;;;;;4989574;28;20515;-80
2022/10/30 12:02:50;;;;;;;10.48;3.92;;;18.90;99.90;;;;;;4985962;28;20037;-80
2022/10/30 12:05:27;;;;;;;11.48;4.55;;;18.90;99.90;;;;;;4989725;28;20185;-79
2022/10/30 12:08:14;;;;;;;10.60;4.50;;;19.00;99.90;;;;;;4986021;28;20026;-79
2022/10/30 12:10:52;;;;;;;11.43;3.55;;;19.10;99.90;;;;;;4992480;28;20044;-79
2022/10/30 12:13:19;;;;;;;7.30;3.90;;;19.10;99.90;;;;;;4990742;28;20041;-78
2022/10/30 12:16:02;;;;;;;12.13;4.00;;;19.10;99.90;;;;;;4994235;28;20200;-79
2022/10/30 12:18:28;;;;;;;10.10;4.20;;;19.10;99.90;;;;;;5005232;28;20540;-79
2022/10/30 12:20:56;;;;;;;13.45;4.10;;;19.10;99.90;;;;;;4989310;28;20113;-79
2022/10/30 12:23:27;;;;;;;11.65;4.38;;;19.20;99.90;;;;;;4987188;28;20110;-82
2022/10/30 12:25:58;;;;;;;7.55;3.70;;;19.20;99.90;;;;;;4976236;28;20113;-82
2022/10/30 12:28:28;;;;;;;9.10;4.63;;;19.30;99.90;;;;;;4986444;28;20073;-80
2022/10/30 12:31:16;;;;;;;6.95;4.47;;;19.20;99.90;;;;;;4986115;28;20030;-80
2022/10/30 12:33:51;;;;;;;7.10;4.10;;;19.20;99.90;;;;;;4987857;28;20038;-80
2022/10/30 12:36:21;;;;;;;9.13;4.03;;;19.30;99.90;;;;;;4980661;28;20129;-82
2022/10/30 12:38:54;;;;;;;8.95;3.95;;;19.30;99.90;;;;;;4988124;28;20026;-81
2022/10/30 12:41:32;;;;;;;8.95;4.28;;;19.30;99.90;;;;;;4992722;28;20038;-83
2022/10/30 12:44:12;;;;;;;11.40;4.05;;;19.30;99.90;;;;;;4973205;28;20037;-82
2022/10/30 12:46:46;;;;;;;8.65;3.72;;;19.20;99.90;;;;;;4993403;28;20041;-81
2022/10/30 12:49:30;;;;;;;8.48;3.83;;;19.20;99.90;;;;;;5000340;28;20034;-81
2022/10/30 12:52:17;;;;;;;7.25;3.45;;;19.30;99.90;;;;;;4987867;28;20077;-80
2022/10/30 12:54:48;;;;;;;8.90;4.38;;;19.30;99.90;;;;;;4988620;28;20038;-82
2022/10/30 12:57:17;;;;;;;8.15;4.20;;;19.40;99.90;;;;;;4992104;28;20034;-80
2022/10/30 12:59:55;;;;;;;10.50;4.72;;;19.40;99.90;;;;;;4987881;28;20026;-78
2022/10/30 13:02:42;;;;;;;9.90;3.67;;;19.50;99.90;;;;;;4987631;28;20741;-79
2022/10/30 13:05:20;;;;;;;10.63;4.13;;;19.50;99.90;;;;;;4999339;28;20041;-79
2022/10/30 13:08:33;;;;;;;6.90;3.85;;;19.60;99.90;;;;;;4986343;28;20556;-78
2022/10/30 13:11:10;;;;;;;13.25;4.03;;;19.60;99.90;;;;;;4977657;28;20034;-81